NKS1251 KPIT-KFLL
Flight info
| Callsign | NKS1251 |
|---|---|
| Flight time | 2h 13m |
| Altitude | 34000 |
| Route | CKB COBBE DANCO Q103 SLOJO/N0443F330 EFFAY/N0446F340 Q83 JEVED Q97 PRMUS CUUDA3 |
| Aircraft | A321/M-SDE3FGHIRWY/LB1 |
Departure
| Time | 2026-05-05 02:47 |
|---|---|
| Airport | Pittsburgh International Airport (KPIT) |
Arrival
| Time | 2026-05-05 05:01 |
|---|---|
| Airport | Fort Lauderdale Hollywood International Airport (KFLL) |
| Time | Latitude | Longitude | Altitude | Speed | Heading |
|---|---|---|---|---|---|
| 2026-05-05 02:27 | 40.49262 | -80.24172 | 1150 ft | 0 kts | 1° |
| 2026-05-05 02:34 | 40.49250 | -80.24172 | 1150 ft | 3 kts | 6° |
| 2026-05-05 02:34 | 40.49231 | -80.24177 | 1148 ft | 3 kts | 26° |
| 2026-05-05 02:34 | 40.49216 | -80.24190 | 1148 ft | 3 kts | 59° |
| 2026-05-05 02:35 | 40.49211 | -80.24206 | 1147 ft | 1 kts | 92° |
| 2026-05-05 02:35 | 40.49211 | -80.24207 | 1147 ft | 1 kts | 92° |
| 2026-05-05 02:38 | 40.49211 | -80.24189 | 1152 ft | 4 kts | 92° |
| 2026-05-05 02:38 | 40.49209 | -80.24133 | 1151 ft | 8 kts | 92° |
| 2026-05-05 02:38 | 40.49207 | -80.24044 | 1148 ft | 11 kts | 91° |
| 2026-05-05 02:38 | 40.49208 | -80.23932 | 1149 ft | 11 kts | 73° |
| 2026-05-05 02:39 | 40.49271 | -80.23898 | 1151 ft | 10 kts | 1° |
| 2026-05-05 02:39 | 40.49343 | -80.23894 | 1153 ft | 10 kts | 2° |
| 2026-05-05 02:39 | 40.49412 | -80.23891 | 1157 ft | 10 kts | 2° |
| 2026-05-05 02:39 | 40.49475 | -80.23889 | 1162 ft | 8 kts | 2° |
| 2026-05-05 02:40 | 40.49533 | -80.23886 | 1164 ft | 9 kts | 2° |
| 2026-05-05 02:40 | 40.49596 | -80.23882 | 1168 ft | 9 kts | 3° |
| 2026-05-05 02:40 | 40.49667 | -80.23877 | 1172 ft | 11 kts | 3° |
| 2026-05-05 02:40 | 40.49747 | -80.23874 | 1176 ft | 13 kts | 0° |
| 2026-05-05 02:41 | 40.49845 | -80.23871 | 1182 ft | 15 kts | 1° |
| 2026-05-05 02:41 | 40.49947 | -80.23867 | 1185 ft | 13 kts | 1° |
| 2026-05-05 02:41 | 40.50028 | -80.23844 | 1186 ft | 12 kts | 48° |
| 2026-05-05 02:41 | 40.50037 | -80.23733 | 1184 ft | 14 kts | 91° |
| 2026-05-05 02:42 | 40.50033 | -80.23598 | 1178 ft | 15 kts | 92° |
| 2026-05-05 02:42 | 40.50029 | -80.23453 | 1178 ft | 14 kts | 92° |
| 2026-05-05 02:42 | 40.50033 | -80.23386 | 1175 ft | 0 kts | 59° |
| 2026-05-05 02:45 | 40.50038 | -80.23378 | 1176 ft | 3 kts | 49° |
| 2026-05-05 02:46 | 40.50080 | -80.23366 | 1177 ft | 10 kts | 3° |
| 2026-05-05 02:46 | 40.50137 | -80.23403 | 1179 ft | 8 kts | 283° |
| 2026-05-05 02:46 | 40.50138 | -80.23423 | 1178 ft | 0 kts | 271° |
| 2026-05-05 02:46 | 40.50138 | -80.23447 | 1179 ft | 9 kts | 271° |
| 2026-05-05 02:47 | 40.50147 | -80.23822 | 1184 ft | 75 kts | 271° |
| 2026-05-05 02:47 | 40.50171 | -80.24778 | 1194 ft | 133 kts | 272° |
| 2026-05-05 02:47 | 40.50211 | -80.26210 | 1256 ft | 175 kts | 275° |
| 2026-05-05 02:47 | 40.50256 | -80.27779 | 2009 ft | 169 kts | 266° |
| 2026-05-05 02:48 | 40.50318 | -80.29316 | 2706 ft | 173 kts | 266° |
| 2026-05-05 02:48 | 40.50463 | -80.30994 | 2997 ft | 197 kts | 269° |
| 2026-05-05 02:48 | 40.50557 | -80.32866 | 3158 ft | 214 kts | 259° |
| 2026-05-05 02:48 | 40.49956 | -80.34666 | 3490 ft | 223 kts | 228° |
| 2026-05-05 02:49 | 40.48790 | -80.36048 | 4104 ft | 229 kts | 221° |
| 2026-05-05 02:49 | 40.47535 | -80.37351 | 4749 ft | 233 kts | 221° |
| 2026-05-05 02:49 | 40.46233 | -80.38651 | 5360 ft | 237 kts | 221° |
| 2026-05-05 02:49 | 40.44894 | -80.39933 | 6009 ft | 240 kts | 219° |
| 2026-05-05 02:50 | 40.43322 | -80.40806 | 6594 ft | 256 kts | 195° |
| 2026-05-05 02:50 | 40.41484 | -80.40730 | 7165 ft | 270 kts | 182° |
| 2026-05-05 02:50 | 40.39602 | -80.40474 | 7775 ft | 273 kts | 182° |
| 2026-05-05 02:50 | 40.37706 | -80.40243 | 8390 ft | 276 kts | 183° |
| 2026-05-05 02:51 | 40.35784 | -80.40018 | 8990 ft | 279 kts | 183° |
| 2026-05-05 02:51 | 40.33834 | -80.39789 | 9573 ft | 283 kts | 182° |
| 2026-05-05 02:51 | 40.31859 | -80.39551 | 10150 ft | 287 kts | 182° |
| 2026-05-05 02:51 | 40.29802 | -80.39310 | 10325 ft | 307 kts | 182° |
| 2026-05-05 02:52 | 40.27609 | -80.39058 | 10457 ft | 326 kts | 182° |
| 2026-05-05 02:52 | 40.25285 | -80.38788 | 10627 ft | 342 kts | 181° |
| 2026-05-05 02:52 | 40.22892 | -80.38497 | 11069 ft | 349 kts | 181° |
| 2026-05-05 02:52 | 40.20459 | -80.38191 | 11616 ft | 352 kts | 180° |
| 2026-05-05 02:53 | 40.18010 | -80.37882 | 12163 ft | 356 kts | 180° |
| 2026-05-05 02:53 | 40.15533 | -80.37574 | 12692 ft | 359 kts | 180° |
| 2026-05-05 02:53 | 40.13032 | -80.37269 | 13218 ft | 363 kts | 180° |
| 2026-05-05 02:53 | 40.10502 | -80.36963 | 13737 ft | 367 kts | 180° |
| 2026-05-05 02:54 | 40.07953 | -80.36655 | 14228 ft | 370 kts | 180° |
| 2026-05-05 02:54 | 40.05379 | -80.36342 | 14738 ft | 372 kts | 179° |
| 2026-05-05 02:54 | 40.02790 | -80.36027 | 15247 ft | 375 kts | 179° |
| 2026-05-05 02:54 | 40.00182 | -80.35708 | 15759 ft | 378 kts | 179° |
| 2026-05-05 02:55 | 39.97556 | -80.35389 | 16269 ft | 381 kts | 179° |
| 2026-05-05 02:55 | 39.94909 | -80.35071 | 16768 ft | 384 kts | 179° |
| 2026-05-05 02:55 | 39.92240 | -80.34751 | 17266 ft | 386 kts | 179° |
| 2026-05-05 02:55 | 39.89551 | -80.34431 | 17759 ft | 389 kts | 178° |
| 2026-05-05 02:56 | 39.86845 | -80.34106 | 18244 ft | 392 kts | 178° |
| 2026-05-05 02:56 | 39.84117 | -80.33778 | 18661 ft | 395 kts | 178° |
| 2026-05-05 02:56 | 39.81373 | -80.33449 | 19103 ft | 397 kts | 178° |
| 2026-05-05 02:56 | 39.78616 | -80.33121 | 19544 ft | 399 kts | 178° |
| 2026-05-05 02:57 | 39.75839 | -80.32790 | 19997 ft | 402 kts | 178° |
| 2026-05-05 02:57 | 39.73049 | -80.32457 | 20447 ft | 404 kts | 178° |
| 2026-05-05 02:57 | 39.70242 | -80.32120 | 20889 ft | 406 kts | 178° |
| 2026-05-05 02:57 | 39.67418 | -80.31781 | 21315 ft | 409 kts | 178° |
| 2026-05-05 02:58 | 39.64581 | -80.31438 | 21733 ft | 411 kts | 178° |
| 2026-05-05 02:58 | 39.61728 | -80.31093 | 22144 ft | 413 kts | 178° |
| 2026-05-05 02:58 | 39.58859 | -80.30749 | 22542 ft | 415 kts | 178° |
| 2026-05-05 02:58 | 39.55975 | -80.30409 | 22937 ft | 417 kts | 179° |
| 2026-05-05 02:59 | 39.53075 | -80.30067 | 23338 ft | 419 kts | 179° |
| 2026-05-05 02:59 | 39.50162 | -80.29724 | 23684 ft | 421 kts | 179° |
| 2026-05-05 02:59 | 39.47234 | -80.29379 | 23996 ft | 423 kts | 179° |
| 2026-05-05 02:59 | 39.44293 | -80.29031 | 24318 ft | 425 kts | 179° |
| 2026-05-05 03:00 | 39.41342 | -80.28678 | 24634 ft | 427 kts | 179° |
| 2026-05-05 03:00 | 39.38373 | -80.28321 | 24943 ft | 429 kts | 179° |
| 2026-05-05 03:00 | 39.35393 | -80.27964 | 25246 ft | 431 kts | 179° |
| 2026-05-05 03:00 | 39.32401 | -80.27609 | 25552 ft | 433 kts | 179° |
| 2026-05-05 03:01 | 39.29395 | -80.27254 | 25853 ft | 435 kts | 179° |
| 2026-05-05 03:01 | 39.26374 | -80.27036 | 26142 ft | 434 kts | 185° |
| 2026-05-05 03:01 | 39.23381 | -80.27397 | 26428 ft | 431 kts | 194° |
| 2026-05-05 03:01 | 39.20461 | -80.28232 | 26702 ft | 431 kts | 197° |
| 2026-05-05 03:02 | 39.17530 | -80.29110 | 26979 ft | 433 kts | 197° |
| 2026-05-05 03:02 | 39.14587 | -80.29982 | 27261 ft | 435 kts | 197° |
| 2026-05-05 03:02 | 39.11630 | -80.30850 | 27538 ft | 437 kts | 197° |
| 2026-05-05 03:02 | 39.08660 | -80.31722 | 27819 ft | 439 kts | 197° |
| 2026-05-05 03:03 | 39.05677 | -80.32597 | 28086 ft | 441 kts | 197° |
| 2026-05-05 03:03 | 39.02682 | -80.33476 | 28348 ft | 443 kts | 197° |
| 2026-05-05 03:03 | 38.99675 | -80.34361 | 28609 ft | 444 kts | 197° |
| 2026-05-05 03:03 | 38.96655 | -80.35251 | 28873 ft | 446 kts | 197° |
| 2026-05-05 03:04 | 38.93623 | -80.36148 | 29145 ft | 448 kts | 197° |
| 2026-05-05 03:04 | 38.90577 | -80.37050 | 29423 ft | 450 kts | 197° |
| 2026-05-05 03:04 | 38.87520 | -80.37952 | 29696 ft | 452 kts | 197° |
| 2026-05-05 03:04 | 38.84459 | -80.38850 | 30059 ft | 451 kts | 197° |
| 2026-05-05 03:05 | 38.81404 | -80.39744 | 30368 ft | 450 kts | 197° |
| 2026-05-05 03:05 | 38.78348 | -80.40634 | 30671 ft | 450 kts | 197° |
| 2026-05-05 03:05 | 38.75295 | -80.41524 | 30961 ft | 450 kts | 197° |
| 2026-05-05 03:05 | 38.72244 | -80.42415 | 31252 ft | 450 kts | 197° |
| 2026-05-05 03:06 | 38.69193 | -80.43308 | 31530 ft | 450 kts | 197° |
| 2026-05-05 03:06 | 38.66144 | -80.44198 | 31810 ft | 450 kts | 197° |
| 2026-05-05 03:06 | 38.63092 | -80.45085 | 32079 ft | 450 kts | 197° |
| 2026-05-05 03:06 | 38.60043 | -80.45973 | 32357 ft | 450 kts | 197° |
| 2026-05-05 03:07 | 38.56995 | -80.46868 | 32627 ft | 450 kts | 197° |
| 2026-05-05 03:07 | 38.53947 | -80.47764 | 32875 ft | 450 kts | 197° |
| 2026-05-05 03:07 | 38.50895 | -80.48663 | 33139 ft | 450 kts | 197° |
| 2026-05-05 03:07 | 38.47849 | -80.49559 | 33395 ft | 450 kts | 197° |
| 2026-05-05 03:08 | 38.44800 | -80.50448 | 33664 ft | 449 kts | 197° |
| 2026-05-05 03:08 | 38.42781 | -80.51035 | 33829 ft | 449 kts | 197° |
| 2026-05-05 03:08 | 38.39730 | -80.51919 | 33940 ft | 449 kts | 197° |
| 2026-05-05 03:09 | 38.33581 | -80.53370 | 33960 ft | 451 kts | 190° |
| 2026-05-05 03:09 | 38.26323 | -80.54404 | 33962 ft | 452 kts | 190° |
| 2026-05-05 03:10 | 38.20085 | -80.55320 | 33965 ft | 451 kts | 191° |
| 2026-05-05 03:10 | 38.14861 | -80.56093 | 33972 ft | 451 kts | 191° |
| 2026-05-05 03:11 | 38.08632 | -80.57007 | 33987 ft | 451 kts | 191° |
| 2026-05-05 03:11 | 38.02399 | -80.57904 | 33995 ft | 451 kts | 191° |
| 2026-05-05 03:12 | 37.96170 | -80.58801 | 34002 ft | 451 kts | 191° |
| 2026-05-05 03:12 | 37.89944 | -80.59705 | 34009 ft | 450 kts | 191° |
| 2026-05-05 03:13 | 37.83728 | -80.60605 | 34014 ft | 449 kts | 192° |
| 2026-05-05 03:13 | 37.77513 | -80.61500 | 34010 ft | 449 kts | 192° |
| 2026-05-05 03:14 | 37.71305 | -80.62375 | 34014 ft | 448 kts | 192° |
| 2026-05-05 03:14 | 37.65113 | -80.63254 | 34005 ft | 447 kts | 192° |
| 2026-05-05 03:15 | 37.58936 | -80.64139 | 33999 ft | 446 kts | 192° |
| 2026-05-05 03:15 | 37.52768 | -80.65014 | 34000 ft | 446 kts | 192° |
| 2026-05-05 03:16 | 37.46614 | -80.65890 | 34012 ft | 445 kts | 192° |
| 2026-05-05 03:16 | 37.40469 | -80.66777 | 34021 ft | 444 kts | 192° |
| 2026-05-05 03:17 | 37.34340 | -80.67660 | 34031 ft | 443 kts | 192° |
| 2026-05-05 03:17 | 37.28217 | -80.68529 | 34042 ft | 443 kts | 192° |
| 2026-05-05 03:18 | 37.22093 | -80.69397 | 34050 ft | 443 kts | 192° |
| 2026-05-05 03:18 | 37.15970 | -80.70262 | 34047 ft | 442 kts | 192° |
| 2026-05-05 03:19 | 37.06756 | -80.71247 | 34046 ft | 448 kts | 185° |
| 2026-05-05 03:19 | 37.00522 | -80.71106 | 34032 ft | 448 kts | 185° |
| 2026-05-05 03:20 | 36.94281 | -80.70947 | 34021 ft | 449 kts | 185° |
| 2026-05-05 03:20 | 36.88039 | -80.70784 | 34047 ft | 448 kts | 185° |
| 2026-05-05 03:21 | 36.81804 | -80.70640 | 34056 ft | 448 kts | 185° |
| 2026-05-05 03:21 | 36.75571 | -80.70500 | 34061 ft | 448 kts | 185° |
| 2026-05-05 03:22 | 36.69378 | -80.70353 | 34055 ft | 448 kts | 185° |
| 2026-05-05 03:22 | 36.63145 | -80.70200 | 34047 ft | 448 kts | 185° |
| 2026-05-05 03:23 | 36.56920 | -80.70058 | 34050 ft | 447 kts | 185° |
| 2026-05-05 03:23 | 36.50698 | -80.69922 | 34061 ft | 447 kts | 185° |
| 2026-05-05 03:24 | 36.44477 | -80.69773 | 34058 ft | 447 kts | 185° |
| 2026-05-05 03:24 | 36.38268 | -80.69627 | 34058 ft | 446 kts | 185° |
| 2026-05-05 03:25 | 36.32019 | -80.69488 | 34046 ft | 446 kts | 185° |
| 2026-05-05 03:25 | 36.25809 | -80.69348 | 34046 ft | 446 kts | 185° |
| 2026-05-05 03:26 | 36.19641 | -80.69208 | 34039 ft | 446 kts | 185° |
| 2026-05-05 03:26 | 36.13434 | -80.69067 | 34025 ft | 446 kts | 185° |
| 2026-05-05 03:27 | 36.07227 | -80.68925 | 34014 ft | 446 kts | 185° |
| 2026-05-05 03:27 | 36.01016 | -80.68782 | 34015 ft | 446 kts | 185° |
| 2026-05-05 03:28 | 35.94805 | -80.68634 | 34030 ft | 446 kts | 185° |
| 2026-05-05 03:28 | 35.88596 | -80.68483 | 34039 ft | 446 kts | 185° |
| 2026-05-05 03:29 | 35.82386 | -80.68338 | 34046 ft | 446 kts | 185° |
| 2026-05-05 03:29 | 35.76174 | -80.68210 | 34059 ft | 446 kts | 185° |
| 2026-05-05 03:30 | 35.69964 | -80.68074 | 34066 ft | 446 kts | 185° |
| 2026-05-05 03:30 | 35.63752 | -80.67926 | 34070 ft | 446 kts | 185° |
| 2026-05-05 03:31 | 35.57546 | -80.67784 | 34069 ft | 446 kts | 185° |
| 2026-05-05 03:31 | 35.51337 | -80.67644 | 34106 ft | 446 kts | 184° |
| 2026-05-05 03:32 | 35.45131 | -80.67500 | 34113 ft | 446 kts | 184° |
| 2026-05-05 03:32 | 35.38934 | -80.67361 | 34113 ft | 445 kts | 184° |
| 2026-05-05 03:33 | 35.32739 | -80.67226 | 34113 ft | 445 kts | 184° |
| 2026-05-05 03:33 | 35.26554 | -80.67086 | 34109 ft | 444 kts | 184° |
| 2026-05-05 03:34 | 35.20373 | -80.66944 | 34103 ft | 444 kts | 184° |
| 2026-05-05 03:34 | 35.14198 | -80.66810 | 34077 ft | 444 kts | 184° |
| 2026-05-05 03:35 | 35.08025 | -80.66680 | 34074 ft | 444 kts | 184° |
| 2026-05-05 03:35 | 35.01849 | -80.66534 | 34074 ft | 444 kts | 184° |
| 2026-05-05 03:36 | 34.95674 | -80.66387 | 34073 ft | 444 kts | 184° |
| 2026-05-05 03:36 | 34.89495 | -80.66248 | 34073 ft | 444 kts | 184° |
| 2026-05-05 03:37 | 34.83308 | -80.66114 | 34070 ft | 445 kts | 184° |
| 2026-05-05 03:37 | 34.77116 | -80.65975 | 34083 ft | 445 kts | 183° |
| 2026-05-05 03:38 | 34.70915 | -80.65839 | 34087 ft | 445 kts | 184° |
| 2026-05-05 03:38 | 34.64713 | -80.65469 | 34089 ft | 450 kts | 175° |
| 2026-05-05 03:39 | 34.58631 | -80.63442 | 34089 ft | 455 kts | 167° |
| 2026-05-05 03:39 | 34.52596 | -80.61138 | 34101 ft | 455 kts | 167° |
| 2026-05-05 03:40 | 34.46554 | -80.58853 | 34121 ft | 455 kts | 167° |
| 2026-05-05 03:40 | 34.40513 | -80.56571 | 34125 ft | 454 kts | 167° |
| 2026-05-05 03:41 | 34.34482 | -80.54296 | 34131 ft | 454 kts | 167° |
| 2026-05-05 03:41 | 34.28416 | -80.52279 | 34127 ft | 448 kts | 176° |
| 2026-05-05 03:42 | 34.22295 | -80.52244 | 34129 ft | 435 kts | 194° |
| 2026-05-05 03:42 | 34.16442 | -80.53881 | 34119 ft | 431 kts | 198° |
| 2026-05-05 03:43 | 34.10608 | -80.55619 | 34098 ft | 432 kts | 198° |
| 2026-05-05 03:43 | 34.04779 | -80.57355 | 34103 ft | 432 kts | 198° |
| 2026-05-05 03:44 | 33.98949 | -80.59097 | 34099 ft | 432 kts | 198° |
| 2026-05-05 03:44 | 33.93119 | -80.60837 | 34097 ft | 432 kts | 198° |
| 2026-05-05 03:45 | 33.87291 | -80.62576 | 34088 ft | 432 kts | 198° |
| 2026-05-05 03:45 | 33.81457 | -80.64309 | 34088 ft | 432 kts | 198° |
| 2026-05-05 03:46 | 33.75620 | -80.66041 | 34089 ft | 432 kts | 198° |
| 2026-05-05 03:46 | 33.69783 | -80.67774 | 34091 ft | 432 kts | 198° |
| 2026-05-05 03:47 | 33.63940 | -80.69506 | 34107 ft | 432 kts | 198° |
| 2026-05-05 03:47 | 33.58094 | -80.71236 | 34114 ft | 433 kts | 198° |
| 2026-05-05 03:48 | 33.52245 | -80.72960 | 34113 ft | 433 kts | 198° |
| 2026-05-05 03:48 | 33.46397 | -80.74696 | 34119 ft | 433 kts | 199° |
| 2026-05-05 03:49 | 33.40544 | -80.76437 | 34114 ft | 434 kts | 198° |
| 2026-05-05 03:49 | 33.34672 | -80.78145 | 34111 ft | 434 kts | 198° |
| 2026-05-05 03:50 | 33.28797 | -80.79855 | 34109 ft | 435 kts | 198° |
| 2026-05-05 03:50 | 33.22919 | -80.81570 | 34102 ft | 435 kts | 198° |
| 2026-05-05 03:51 | 33.17984 | -80.83013 | 34101 ft | 436 kts | 199° |
| 2026-05-05 03:51 | 33.12093 | -80.84737 | 34107 ft | 436 kts | 199° |
| 2026-05-05 03:52 | 33.06191 | -80.86464 | 34118 ft | 437 kts | 199° |
| 2026-05-05 03:52 | 33.00282 | -80.88181 | 34112 ft | 437 kts | 199° |
| 2026-05-05 03:53 | 32.94365 | -80.89897 | 34115 ft | 438 kts | 199° |
| 2026-05-05 03:53 | 32.88442 | -80.91623 | 34108 ft | 439 kts | 199° |
| 2026-05-05 03:54 | 32.82508 | -80.93352 | 34103 ft | 439 kts | 199° |
| 2026-05-05 03:54 | 32.76565 | -80.95076 | 34093 ft | 440 kts | 199° |
| 2026-05-05 03:55 | 32.70608 | -80.96785 | 34094 ft | 441 kts | 199° |
| 2026-05-05 03:55 | 32.64640 | -80.98507 | 34100 ft | 441 kts | 199° |
| 2026-05-05 03:56 | 32.58668 | -81.00236 | 34099 ft | 442 kts | 200° |
| 2026-05-05 03:56 | 32.52640 | -81.01780 | 34099 ft | 448 kts | 192° |
| 2026-05-05 03:57 | 32.46351 | -81.02007 | 34100 ft | 454 kts | 187° |
| 2026-05-05 03:57 | 32.40030 | -81.02108 | 34098 ft | 454 kts | 187° |
| 2026-05-05 03:58 | 32.33706 | -81.02218 | 34097 ft | 455 kts | 187° |
| 2026-05-05 03:58 | 32.27368 | -81.02336 | 34104 ft | 456 kts | 187° |
| 2026-05-05 03:59 | 32.21061 | -81.02448 | 34104 ft | 457 kts | 187° |
| 2026-05-05 03:59 | 32.14707 | -81.02561 | 34106 ft | 457 kts | 188° |
| 2026-05-05 04:00 | 32.08340 | -81.02676 | 34071 ft | 458 kts | 188° |
| 2026-05-05 04:00 | 32.01965 | -81.02787 | 34064 ft | 458 kts | 188° |
| 2026-05-05 04:01 | 31.95586 | -81.02909 | 34071 ft | 458 kts | 188° |
| 2026-05-05 04:01 | 31.89208 | -81.03092 | 34064 ft | 459 kts | 189° |
| 2026-05-05 04:02 | 31.82822 | -81.03290 | 34070 ft | 459 kts | 189° |
| 2026-05-05 04:02 | 31.76426 | -81.03471 | 34081 ft | 460 kts | 189° |
| 2026-05-05 04:03 | 31.70026 | -81.03644 | 34082 ft | 460 kts | 189° |
| 2026-05-05 04:03 | 31.63574 | -81.03814 | 34082 ft | 461 kts | 189° |
| 2026-05-05 04:04 | 31.57168 | -81.03993 | 34085 ft | 460 kts | 190° |
| 2026-05-05 04:04 | 31.50793 | -81.04390 | 34095 ft | 458 kts | 192° |
| 2026-05-05 04:05 | 31.44473 | -81.04882 | 34098 ft | 459 kts | 192° |
| 2026-05-05 04:05 | 31.38093 | -81.05306 | 34101 ft | 460 kts | 191° |
| 2026-05-05 04:06 | 31.31705 | -81.05691 | 34108 ft | 460 kts | 191° |
| 2026-05-05 04:06 | 31.25318 | -81.06083 | 34112 ft | 460 kts | 192° |
| 2026-05-05 04:07 | 31.18903 | -81.06332 | 34113 ft | 462 kts | 189° |
| 2026-05-05 04:07 | 31.12466 | -81.06408 | 34118 ft | 463 kts | 189° |
| 2026-05-05 04:08 | 31.06021 | -81.06487 | 34114 ft | 463 kts | 189° |
| 2026-05-05 04:08 | 30.99586 | -81.06613 | 34118 ft | 463 kts | 190° |
| 2026-05-05 04:09 | 30.93150 | -81.06758 | 34117 ft | 463 kts | 190° |
| 2026-05-05 04:09 | 30.86707 | -81.06893 | 34119 ft | 463 kts | 190° |
| 2026-05-05 04:10 | 30.80265 | -81.07023 | 34118 ft | 463 kts | 190° |
| 2026-05-05 04:10 | 30.73819 | -81.07150 | 34127 ft | 463 kts | 190° |
| 2026-05-05 04:11 | 30.67375 | -81.07287 | 34127 ft | 463 kts | 190° |
| 2026-05-05 04:11 | 30.60935 | -81.07439 | 34123 ft | 462 kts | 191° |
| 2026-05-05 04:12 | 30.54523 | -81.07777 | 34117 ft | 460 kts | 192° |
| 2026-05-05 04:12 | 30.48136 | -81.08234 | 34120 ft | 460 kts | 192° |
| 2026-05-05 04:13 | 30.41741 | -81.08665 | 34117 ft | 461 kts | 192° |
| 2026-05-05 04:13 | 30.35335 | -81.09049 | 34118 ft | 461 kts | 192° |
| 2026-05-05 04:14 | 30.28929 | -81.09419 | 34114 ft | 461 kts | 192° |
| 2026-05-05 04:14 | 30.22519 | -81.09798 | 34115 ft | 461 kts | 192° |
| 2026-05-05 04:15 | 30.16115 | -81.10184 | 34121 ft | 461 kts | 192° |
| 2026-05-05 04:15 | 30.09711 | -81.10569 | 34126 ft | 461 kts | 192° |
| 2026-05-05 04:16 | 30.03308 | -81.10956 | 34128 ft | 461 kts | 192° |
| 2026-05-05 04:16 | 29.96902 | -81.11338 | 34131 ft | 461 kts | 192° |
| 2026-05-05 04:17 | 29.90497 | -81.11714 | 34133 ft | 461 kts | 192° |
| 2026-05-05 04:17 | 29.84067 | -81.11906 | 34127 ft | 469 kts | 184° |
| 2026-05-05 04:18 | 29.77599 | -81.10171 | 34124 ft | 490 kts | 164° |
| 2026-05-05 04:18 | 29.71326 | -81.07067 | 34116 ft | 491 kts | 164° |
| 2026-05-05 04:19 | 29.65044 | -81.03988 | 34115 ft | 491 kts | 164° |
| 2026-05-05 04:19 | 29.58760 | -81.00926 | 34112 ft | 491 kts | 164° |
| 2026-05-05 04:20 | 29.52480 | -80.97858 | 34120 ft | 490 kts | 164° |
| 2026-05-05 04:20 | 29.46203 | -80.94795 | 34120 ft | 490 kts | 165° |
| 2026-05-05 04:21 | 29.39930 | -80.91743 | 34117 ft | 489 kts | 165° |
| 2026-05-05 04:21 | 29.33660 | -80.88695 | 34118 ft | 489 kts | 165° |
| 2026-05-05 04:22 | 29.27438 | -80.85676 | 34120 ft | 489 kts | 165° |
| 2026-05-05 04:22 | 29.21171 | -80.82635 | 34120 ft | 489 kts | 165° |
| 2026-05-05 04:23 | 29.14913 | -80.79586 | 34122 ft | 488 kts | 165° |
| 2026-05-05 04:23 | 29.08661 | -80.76553 | 34122 ft | 488 kts | 165° |
| 2026-05-05 04:24 | 29.02411 | -80.73539 | 34114 ft | 487 kts | 165° |
| 2026-05-05 04:25 | 28.93044 | -80.69074 | 34105 ft | 485 kts | 166° |
| 2026-05-05 04:25 | 28.86766 | -80.66282 | 34097 ft | 483 kts | 167° |
| 2026-05-05 04:26 | 28.80496 | -80.63535 | 34101 ft | 483 kts | 167° |
| 2026-05-05 04:26 | 28.74235 | -80.60762 | 34091 ft | 483 kts | 167° |
| 2026-05-05 04:27 | 28.67981 | -80.57969 | 34094 ft | 483 kts | 167° |
| 2026-05-05 04:27 | 28.61733 | -80.55174 | 34095 ft | 482 kts | 167° |
| 2026-05-05 04:28 | 28.55488 | -80.52409 | 34079 ft | 481 kts | 167° |
| 2026-05-05 04:28 | 28.49253 | -80.49658 | 34080 ft | 480 kts | 167° |
| 2026-05-05 04:29 | 28.43036 | -80.46914 | 34079 ft | 479 kts | 167° |
| 2026-05-05 04:29 | 28.36828 | -80.44160 | 34075 ft | 479 kts | 167° |
| 2026-05-05 04:30 | 28.30631 | -80.41409 | 34077 ft | 478 kts | 168° |
| 2026-05-05 04:30 | 28.24440 | -80.38666 | 34074 ft | 477 kts | 168° |
| 2026-05-05 04:31 | 28.18263 | -80.35925 | 34093 ft | 477 kts | 168° |
| 2026-05-05 04:31 | 28.12089 | -80.33183 | 34084 ft | 476 kts | 168° |
| 2026-05-05 04:32 | 28.05913 | -80.30528 | 34091 ft | 473 kts | 169° |
| 2026-05-05 04:32 | 27.99704 | -80.28130 | 34084 ft | 470 kts | 171° |
| 2026-05-05 04:33 | 27.93508 | -80.25796 | 33879 ft | 465 kts | 171° |
| 2026-05-05 04:33 | 27.90470 | -80.24623 | 33602 ft | 457 kts | 171° |
| 2026-05-05 04:33 | 27.87490 | -80.23453 | 33336 ft | 450 kts | 170° |
| 2026-05-05 04:33 | 27.84551 | -80.22293 | 33054 ft | 444 kts | 171° |
| 2026-05-05 04:34 | 27.82621 | -80.21533 | 32721 ft | 443 kts | 171° |
| 2026-05-05 04:34 | 27.79720 | -80.20397 | 32225 ft | 440 kts | 171° |
| 2026-05-05 04:34 | 27.76832 | -80.19272 | 31739 ft | 438 kts | 171° |
| 2026-05-05 04:34 | 27.73958 | -80.18160 | 31249 ft | 436 kts | 171° |
| 2026-05-05 04:35 | 27.71102 | -80.17057 | 30766 ft | 434 kts | 171° |
| 2026-05-05 04:35 | 27.68255 | -80.15954 | 30294 ft | 432 kts | 170° |
| 2026-05-05 04:35 | 27.65417 | -80.14850 | 29788 ft | 430 kts | 170° |
| 2026-05-05 04:35 | 27.62610 | -80.13756 | 29383 ft | 424 kts | 170° |
| 2026-05-05 04:36 | 27.59836 | -80.12664 | 28956 ft | 420 kts | 169° |
| 2026-05-05 04:36 | 27.57102 | -80.11551 | 28567 ft | 416 kts | 169° |
| 2026-05-05 04:36 | 27.54379 | -80.10421 | 28165 ft | 423 kts | 169° |
| 2026-05-05 04:36 | 27.51577 | -80.09259 | 27762 ft | 433 kts | 168° |
| 2026-05-05 04:37 | 27.48751 | -80.08081 | 27361 ft | 433 kts | 168° |
| 2026-05-05 04:37 | 27.45937 | -80.06909 | 26964 ft | 430 kts | 168° |
| 2026-05-05 04:37 | 27.43139 | -80.05748 | 26573 ft | 427 kts | 168° |
| 2026-05-05 04:37 | 27.40363 | -80.04602 | 26190 ft | 423 kts | 168° |
| 2026-05-05 04:38 | 27.37604 | -80.03492 | 25782 ft | 418 kts | 170° |
| 2026-05-05 04:38 | 27.34849 | -80.02530 | 25382 ft | 412 kts | 172° |
| 2026-05-05 04:38 | 27.32102 | -80.01687 | 24991 ft | 407 kts | 173° |
| 2026-05-05 04:38 | 27.29369 | -80.00905 | 24604 ft | 403 kts | 174° |
| 2026-05-05 04:39 | 27.26658 | -80.00142 | 24223 ft | 400 kts | 174° |
| 2026-05-05 04:39 | 27.23970 | -79.99347 | 23771 ft | 400 kts | 172° |
| 2026-05-05 04:39 | 27.21298 | -79.98454 | 23236 ft | 401 kts | 170° |
| 2026-05-05 04:39 | 27.18650 | -79.97495 | 22732 ft | 399 kts | 169° |
| 2026-05-05 04:40 | 27.16021 | -79.96507 | 22264 ft | 397 kts | 169° |
| 2026-05-05 04:40 | 27.13412 | -79.95523 | 21889 ft | 393 kts | 169° |
| 2026-05-05 04:40 | 27.10828 | -79.94554 | 21336 ft | 393 kts | 169° |
| 2026-05-05 04:40 | 27.08255 | -79.93605 | 20931 ft | 384 kts | 169° |
| 2026-05-05 04:41 | 27.05735 | -79.92673 | 20391 ft | 380 kts | 168° |
| 2026-05-05 04:41 | 27.03241 | -79.91703 | 19940 ft | 379 kts | 168° |
| 2026-05-05 04:41 | 27.00772 | -79.90705 | 19488 ft | 377 kts | 167° |
| 2026-05-05 04:41 | 26.98314 | -79.89697 | 19037 ft | 375 kts | 167° |
| 2026-05-05 04:42 | 26.95871 | -79.88695 | 18580 ft | 373 kts | 167° |
| 2026-05-05 04:42 | 26.93463 | -79.87708 | 18195 ft | 363 kts | 167° |
| 2026-05-05 04:42 | 26.91112 | -79.86748 | 17650 ft | 359 kts | 167° |
| 2026-05-05 04:42 | 26.88771 | -79.85805 | 17201 ft | 356 kts | 167° |
| 2026-05-05 04:43 | 26.86450 | -79.84871 | 16775 ft | 353 kts | 167° |
| 2026-05-05 04:43 | 26.84150 | -79.83946 | 16353 ft | 350 kts | 166° |
| 2026-05-05 04:43 | 26.81867 | -79.83028 | 15938 ft | 347 kts | 166° |
| 2026-05-05 04:43 | 26.79599 | -79.82117 | 15508 ft | 346 kts | 166° |
| 2026-05-05 04:44 | 26.77343 | -79.81213 | 15093 ft | 344 kts | 166° |
| 2026-05-05 04:44 | 26.75097 | -79.80313 | 14677 ft | 342 kts | 166° |
| 2026-05-05 04:44 | 26.72856 | -79.79456 | 14266 ft | 338 kts | 171° |
| 2026-05-05 04:44 | 26.70572 | -79.79049 | 13852 ft | 329 kts | 183° |
| 2026-05-05 04:45 | 26.68323 | -79.79190 | 13418 ft | 320 kts | 194° |
| 2026-05-05 04:45 | 26.66200 | -79.79830 | 13053 ft | 312 kts | 205° |
| 2026-05-05 04:45 | 26.64196 | -79.80665 | 12793 ft | 305 kts | 204° |
| 2026-05-05 04:45 | 26.62194 | -79.81488 | 12298 ft | 307 kts | 204° |
| 2026-05-05 04:46 | 26.60195 | -79.82298 | 11916 ft | 305 kts | 204° |
| 2026-05-05 04:46 | 26.58209 | -79.83098 | 11546 ft | 302 kts | 204° |
| 2026-05-05 04:46 | 26.56239 | -79.83894 | 11183 ft | 300 kts | 204° |
| 2026-05-05 04:46 | 26.54299 | -79.84705 | 10925 ft | 293 kts | 205° |
| 2026-05-05 04:47 | 26.52441 | -79.85550 | 10735 ft | 285 kts | 206° |
| 2026-05-05 04:47 | 26.50629 | -79.86410 | 10420 ft | 282 kts | 207° |
| 2026-05-05 04:47 | 26.48829 | -79.87277 | 10090 ft | 281 kts | 207° |
| 2026-05-05 04:47 | 26.47039 | -79.88138 | 9725 ft | 280 kts | 206° |
| 2026-05-05 04:48 | 26.45248 | -79.88992 | 9295 ft | 281 kts | 206° |
| 2026-05-05 04:48 | 26.43448 | -79.89845 | 8920 ft | 280 kts | 206° |
| 2026-05-05 04:48 | 26.41661 | -79.90685 | 8602 ft | 278 kts | 205° |
| 2026-05-05 04:48 | 26.39882 | -79.91517 | 8288 ft | 275 kts | 206° |
| 2026-05-05 04:49 | 26.38138 | -79.92378 | 8069 ft | 273 kts | 211° |
| 2026-05-05 04:49 | 26.36489 | -79.93447 | 8000 ft | 274 kts | 213° |
| 2026-05-05 04:49 | 26.34843 | -79.94511 | 7731 ft | 273 kts | 212° |
| 2026-05-05 04:49 | 26.33200 | -79.95565 | 7373 ft | 272 kts | 212° |
| 2026-05-05 04:50 | 26.31559 | -79.96614 | 7033 ft | 271 kts | 212° |
| 2026-05-05 04:50 | 26.29924 | -79.97651 | 6689 ft | 270 kts | 212° |
| 2026-05-05 04:50 | 26.28292 | -79.98686 | 6348 ft | 269 kts | 212° |
| 2026-05-05 04:50 | 26.26668 | -79.99723 | 5973 ft | 269 kts | 212° |
| 2026-05-05 04:51 | 26.25050 | -80.00765 | 5609 ft | 268 kts | 212° |
| 2026-05-05 04:51 | 26.23438 | -80.01804 | 5261 ft | 267 kts | 211° |
| 2026-05-05 04:51 | 26.21834 | -80.02834 | 5030 ft | 264 kts | 211° |
| 2026-05-05 04:51 | 26.20232 | -80.03865 | 5025 ft | 267 kts | 212° |
| 2026-05-05 04:52 | 26.18764 | -80.05105 | 5028 ft | 265 kts | 227° |
| 2026-05-05 04:52 | 26.17682 | -80.06755 | 5037 ft | 264 kts | 244° |
| 2026-05-05 04:52 | 26.17027 | -80.08659 | 5024 ft | 264 kts | 252° |
| 2026-05-05 04:52 | 26.16453 | -80.10597 | 5029 ft | 264 kts | 252° |
| 2026-05-05 04:53 | 26.15865 | -80.12531 | 4983 ft | 263 kts | 252° |
| 2026-05-05 04:53 | 26.15282 | -80.14460 | 5011 ft | 263 kts | 254° |
| 2026-05-05 04:53 | 26.15003 | -80.16471 | 5028 ft | 264 kts | 270° |
| 2026-05-05 04:53 | 26.15023 | -80.18512 | 4968 ft | 263 kts | 270° |
| 2026-05-05 04:54 | 26.15037 | -80.20537 | 4626 ft | 261 kts | 270° |
| 2026-05-05 04:54 | 26.15041 | -80.22555 | 4263 ft | 260 kts | 270° |
| 2026-05-05 04:54 | 26.15048 | -80.24562 | 3886 ft | 259 kts | 270° |
| 2026-05-05 04:54 | 26.15063 | -80.26569 | 3514 ft | 259 kts | 271° |
| 2026-05-05 04:55 | 26.15090 | -80.28573 | 3228 ft | 256 kts | 271° |
| 2026-05-05 04:55 | 26.15101 | -80.30518 | 3110 ft | 246 kts | 270° |
| 2026-05-05 04:55 | 26.15097 | -80.32378 | 3014 ft | 235 kts | 270° |
| 2026-05-05 04:55 | 26.14940 | -80.34114 | 3013 ft | 220 kts | 249° |
| 2026-05-05 04:56 | 26.14049 | -80.35465 | 3048 ft | 220 kts | 216° |
| 2026-05-05 04:56 | 26.12617 | -80.36054 | 3032 ft | 223 kts | 187° |
| 2026-05-05 04:56 | 26.11068 | -80.35983 | 3013 ft | 224 kts | 174° |
| 2026-05-05 04:56 | 26.09712 | -80.35717 | 3020 ft | 225 kts | 164° |
| 2026-05-05 04:57 | 26.08413 | -80.34799 | 3000 ft | 218 kts | 130° |
| 2026-05-05 04:57 | 26.07800 | -80.33336 | 2878 ft | 205 kts | 98° |
| 2026-05-05 04:57 | 26.07756 | -80.31780 | 2643 ft | 198 kts | 90° |
| 2026-05-05 04:57 | 26.07759 | -80.30261 | 2390 ft | 195 kts | 90° |
| 2026-05-05 04:58 | 26.07755 | -80.28765 | 2145 ft | 193 kts | 90° |
| 2026-05-05 04:58 | 26.07748 | -80.27285 | 1895 ft | 189 kts | 90° |
| 2026-05-05 04:58 | 26.07742 | -80.25892 | 1682 ft | 170 kts | 90° |
| 2026-05-05 04:58 | 26.07735 | -80.24621 | 1440 ft | 160 kts | 89° |
| 2026-05-05 04:59 | 26.07729 | -80.23397 | 1232 ft | 157 kts | 89° |
| 2026-05-05 04:59 | 26.07730 | -80.22189 | 1012 ft | 156 kts | 89° |
| 2026-05-05 04:59 | 26.07724 | -80.20988 | 827 ft | 155 kts | 89° |
| 2026-05-05 04:59 | 26.07714 | -80.19801 | 628 ft | 151 kts | 89° |
| 2026-05-05 05:00 | 26.07703 | -80.18646 | 460 ft | 149 kts | 89° |
| 2026-05-05 05:00 | 26.07699 | -80.17500 | 266 ft | 147 kts | 86° |
| 2026-05-05 05:00 | 26.07689 | -80.16367 | 71 ft | 146 kts | 88° |
| 2026-05-05 05:00 | 26.07689 | -80.15309 | 16 ft | 121 kts | 90° |
| 2026-05-05 05:01 | 26.07684 | -80.14518 | 20 ft | 85 kts | 89° |
| 2026-05-05 05:01 | 26.07680 | -80.14085 | 18 ft | 27 kts | 91° |
| 2026-05-05 05:01 | 26.07608 | -80.14001 | 18 ft | 15 kts | 179° |
| 2026-05-05 05:01 | 26.07557 | -80.14075 | 16 ft | 13 kts | 269° |
| 2026-05-05 05:02 | 26.07556 | -80.14181 | 17 ft | 14 kts | 271° |
| 2026-05-05 05:02 | 26.07559 | -80.14292 | 17 ft | 15 kts | 270° |
| 2026-05-05 05:02 | 26.07559 | -80.14409 | 17 ft | 15 kts | 270° |
| 2026-05-05 05:02 | 26.07559 | -80.14531 | 17 ft | 16 kts | 270° |
| 2026-05-05 05:03 | 26.07560 | -80.14662 | 17 ft | 18 kts | 270° |
| 2026-05-05 05:03 | 26.07561 | -80.14821 | 16 ft | 23 kts | 270° |
| 2026-05-05 05:03 | 26.07562 | -80.15012 | 16 ft | 21 kts | 269° |
| 2026-05-05 05:03 | 26.07520 | -80.15074 | 16 ft | 11 kts | 158° |
| 2026-05-05 05:04 | 26.07458 | -80.15011 | 18 ft | 16 kts | 135° |
| 2026-05-05 05:04 | 26.07376 | -80.14900 | 16 ft | 19 kts | 110° |
| 2026-05-05 05:04 | 26.07268 | -80.14854 | 16 ft | 21 kts | 180° |
| 2026-05-05 05:04 | 26.07115 | -80.14854 | 16 ft | 17 kts | 180° |
| 2026-05-05 05:05 | 26.07033 | -80.14803 | 17 ft | 14 kts | 135° |
| 2026-05-05 05:05 | 26.06960 | -80.14726 | 16 ft | 15 kts | 138° |
| 2026-05-05 05:05 | 26.06880 | -80.14655 | 16 ft | 14 kts | 144° |
| 2026-05-05 05:05 | 26.06824 | -80.14585 | 17 ft | 11 kts | 113° |
| 2026-05-05 05:06 | 26.06818 | -80.14512 | 16 ft | 8 kts | 90° |
| 2026-05-05 05:06 | 26.06820 | -80.14458 | 16 ft | 6 kts | 85° |
| 2026-05-05 05:06 | 26.06834 | -80.14436 | 16 ft | 2 kts | 34° |
| 2026-05-05 05:06 | 26.06849 | -80.14432 | 16 ft | 4 kts | 11° |
| 2026-05-05 05:07 | 26.06878 | -80.14431 | 16 ft | 1 kts | 1° |
| 2026-05-05 05:07 | 26.06880 | -80.14431 | 16 ft | 0 kts | 1° |